Aviation Digital Data Service (ADDS)

Output produced by METARs form (1017 UTC 28 July 2015)
found at http://aviationweather.gov/adds/metars/
 
KLFT 280520Z 2806/2906 VRB03KT P6SM SCT250